sensor_id;sensor_type;location;lat;lon;timestamp;pressure;altitude;pressure_sealevel;temperature;humidity
67397;BME280;57728;50.448;18.824;2023-02-03T00:00:21;98441.50;;;1.84;64.46
67397;BME280;57728;50.448;18.824;2023-02-03T00:02:22;98438.13;;;1.82;64.38
67397;BME280;57728;50.448;18.824;2023-02-03T00:04:24;98433.56;;;1.82;64.33
67397;BME280;57728;50.448;18.824;2023-02-03T00:06:26;98447.00;;;1.82;64.40
67397;BME280;57728;50.448;18.824;2023-02-03T00:08:28;98441.50;;;1.84;64.55
67397;BME280;57728;50.448;18.824;2023-02-03T00:10:33;98399.81;;;1.55;64.33
67397;BME280;57728;50.448;18.824;2023-02-03T00:12:37;98379.97;;;1.40;64.18
67397;BME280;57728;50.448;18.824;2023-02-03T00:14:38;98421.31;;;1.63;64.18
67397;BME280;57728;50.448;18.824;2023-02-03T00:16:39;98385.69;;;1.36;64.01
67397;BME280;57728;50.448;18.824;2023-02-03T00:18:42;98422.31;;;1.62;63.96
67397;BME280;57728;50.448;18.824;2023-02-03T00:20:43;98440.28;;;1.70;64.17
67397;BME280;57728;50.448;18.824;2023-02-03T00:22:45;98434.19;;;1.60;63.99
67397;BME280;57728;50.448;18.824;2023-02-03T00:24:47;98398.09;;;1.37;64.09
67397;BME280;57728;50.448;18.824;2023-02-03T00:26:48;98451.66;;;1.64;63.94
67397;BME280;57728;50.448;18.824;2023-02-03T00:28:50;98446.25;;;1.47;64.19
67397;BME280;57728;50.448;18.824;2023-02-03T00:30:52;98396.66;;;1.17;63.91
67397;BME280;57728;50.448;18.824;2023-02-03T00:32:54;98396.34;;;1.20;64.22
67397;BME280;57728;50.448;18.824;2023-02-03T00:34:55;98456.00;;;1.57;64.33
67397;BME280;57728;50.448;18.824;2023-02-03T00:36:58;98416.66;;;1.23;64.12
67397;BME280;57728;50.448;18.824;2023-02-03T00:39:00;98464.22;;;1.55;64.31
67397;BME280;57728;50.448;18.824;2023-02-03T00:41:01;98398.38;;;1.18;64.22
67397;BME280;57728;50.448;18.824;2023-02-03T00:43:04;98449.41;;;1.43;64.22
67397;BME280;57728;50.448;18.824;2023-02-03T00:45:06;98468.59;;;1.56;64.11
67397;BME280;57728;50.448;18.824;2023-02-03T00:47:08;98445.41;;;1.47;64.10
67397;BME280;57728;50.448;18.824;2023-02-03T00:49:11;98396.28;;;1.03;63.88
67397;BME280;57728;50.448;18.824;2023-02-03T00:51:12;98435.13;;;1.34;63.83
67397;BME280;57728;50.448;18.824;2023-02-03T00:53:14;98437.66;;;1.35;63.83
67397;BME280;57728;50.448;18.824;2023-02-03T00:55:16;98380.00;;;0.97;63.74
67397;BME280;57728;50.448;18.824;2023-02-03T00:57:18;98457.63;;;1.41;63.58
67397;BME280;57728;50.448;18.824;2023-02-03T00:59:19;98464.00;;;1.40;63.69
67397;BME280;57728;50.448;18.824;2023-02-03T01:01:22;98438.78;;;1.25;63.90
67397;BME280;57728;50.448;18.824;2023-02-03T01:03:24;98427.88;;;1.18;63.93
67397;BME280;57728;50.448;18.824;2023-02-03T01:05:25;98443.34;;;1.32;63.82
67397;BME280;57728;50.448;18.824;2023-02-03T01:07:31;98442.03;;;1.36;63.94
67397;BME280;57728;50.448;18.824;2023-02-03T01:09:34;98442.50;;;1.32;63.80
67397;BME280;57728;50.448;18.824;2023-02-03T01:11:36;98374.28;;;0.92;63.99
67397;BME280;57728;50.448;18.824;2023-02-03T01:13:39;98448.44;;;1.52;63.78
67397;BME280;57728;50.448;18.824;2023-02-03T01:15:48;98437.03;;;1.42;63.64
67397;BME280;57728;50.448;18.824;2023-02-03T01:17:49;98399.03;;;1.20;63.61
67397;BME280;57728;50.448;18.824;2023-02-03T01:19:52;98446.06;;;1.41;63.40
67397;BME280;57728;50.448;18.824;2023-02-03T01:21:54;98439.34;;;1.36;63.21
67397;BME280;57728;50.448;18.824;2023-02-03T01:23:58;98426.22;;;1.25;63.50
67397;BME280;57728;50.448;18.824;2023-02-03T01:26:06;98431.25;;;1.28;63.41
67397;BME280;57728;50.448;18.824;2023-02-03T01:28:09;98428.94;;;1.33;63.45
67397;BME280;57728;50.448;18.824;2023-02-03T01:30:11;98447.06;;;1.40;63.38
67397;BME280;57728;50.448;18.824;2023-02-03T01:32:13;98444.69;;;1.36;63.17
67397;BME280;57728;50.448;18.824;2023-02-03T01:34:15;98430.22;;;1.21;63.21
67397;BME280;57728;50.448;18.824;2023-02-03T01:36:20;98439.28;;;1.28;63.10
67397;BME280;57728;50.448;18.824;2023-02-03T01:38:24;98423.16;;;1.12;63.21
67397;BME280;57728;50.448;18.824;2023-02-03T01:40:27;98391.88;;;0.94;63.20
67397;BME280;57728;50.448;18.824;2023-02-03T01:42:31;98439.09;;;1.22;63.23
67397;BME280;57728;50.448;18.824;2023-02-03T01:44:46;98432.91;;;1.21;63.28
67397;BME280;57728;50.448;18.824;2023-02-03T01:46:51;98427.50;;;1.13;63.28
67397;BME280;57728;50.448;18.824;2023-02-03T01:51:25;98408.31;;;0.91;63.34
67397;BME280;57728;50.448;18.824;2023-02-03T01:53:27;98341.25;;;0.48;63.30
67397;BME280;57728;50.448;18.824;2023-02-03T01:55:40;98428.09;;;0.98;63.55
67397;BME280;57728;50.448;18.824;2023-02-03T01:57:56;98428.09;;;0.98;63.77
67397;BME280;57728;50.448;18.824;2023-02-03T02:00:03;98428.09;;;0.98;63.59
67397;BME280;57728;50.448;18.824;2023-02-03T02:02:14;98416.19;;;0.93;63.61
67397;BME280;57728;50.448;18.824;2023-02-03T02:04:16;98413.13;;;0.88;63.86
67397;BME280;57728;50.448;18.824;2023-02-03T02:06:18;98428.44;;;0.95;64.07
67397;BME280;57728;50.448;18.824;2023-02-03T02:08:22;98397.47;;;0.75;64.00
67397;BME280;57728;50.448;18.824;2023-02-03T02:10:26;98360.50;;;0.52;64.11
67397;BME280;57728;50.448;18.824;2023-02-03T02:12:29;98324.19;;;0.23;64.30
67397;BME280;57728;50.448;18.824;2023-02-03T02:14:31;98395.94;;;0.64;64.51
67397;BME280;57728;50.448;18.824;2023-02-03T02:17:53;98377.53;;;0.43;64.66
67397;BME280;57728;50.448;18.824;2023-02-03T02:32:03;98404.47;;;0.67;65.35
67397;BME280;57728;50.448;18.824;2023-02-03T02:39:46;98370.78;;;0.65;65.72
67397;BME280;57728;50.448;18.824;2023-02-03T02:47:37;98327.59;;;0.33;66.03
67397;BME280;57728;50.448;18.824;2023-02-03T02:50:01;98354.16;;;0.53;66.53
67397;BME280;57728;50.448;18.824;2023-02-03T02:52:30;98358.19;;;0.57;66.47
67397;BME280;57728;50.448;18.824;2023-02-03T02:54:39;98360.56;;;0.60;66.30
67397;BME280;57728;50.448;18.824;2023-02-03T02:56:51;98319.56;;;0.33;66.47
67397;BME280;57728;50.448;18.824;2023-02-03T02:59:01;98359.19;;;0.56;66.32
67397;BME280;57728;50.448;18.824;2023-02-03T03:01:07;98379.69;;;0.65;66.43
67397;BME280;57728;50.448;18.824;2023-02-03T03:03:23;98380.34;;;0.67;66.57
67397;BME280;57728;50.448;18.824;2023-02-03T03:05:27;98364.94;;;0.61;66.46
67397;BME280;57728;50.448;18.824;2023-02-03T03:07:37;98330.97;;;0.36;66.79
67397;BME280;57728;50.448;18.824;2023-02-03T03:09:53;98391.66;;;0.79;66.49
67397;BME280;57728;50.448;18.824;2023-02-03T03:12:13;98383.09;;;0.76;66.77
67397;BME280;57728;50.448;18.824;2023-02-03T03:14:24;98367.34;;;0.73;66.44
67397;BME280;57728;50.448;18.824;2023-02-03T03:16:35;98388.00;;;0.89;66.54
67397;BME280;57728;50.448;18.824;2023-02-03T03:18:47;98379.09;;;0.80;66.62
67397;BME280;57728;50.448;18.824;2023-02-03T03:20:57;98370.69;;;0.75;66.51
67397;BME280;57728;50.448;18.824;2023-02-03T03:23:09;98355.75;;;0.72;66.36
67397;BME280;57728;50.448;18.824;2023-02-03T03:25:20;98363.84;;;0.80;66.33
67397;BME280;57728;50.448;18.824;2023-02-03T03:27:36;98333.97;;;0.67;66.18
67397;BME280;57728;50.448;18.824;2023-02-03T03:30:04;98369.06;;;0.90;65.90
67397;BME280;57728;50.448;18.824;2023-02-03T03:32:11;98330.13;;;0.70;65.78
67397;BME280;57728;50.448;18.824;2023-02-03T03:34:15;98356.00;;;0.87;65.93
67397;BME280;57728;50.448;18.824;2023-02-03T03:36:49;98353.00;;;0.90;65.58
67397;BME280;57728;50.448;18.824;2023-02-03T03:39:21;98309.53;;;0.70;65.35
67397;BME280;57728;50.448;18.824;2023-02-03T03:42:06;98327.50;;;0.78;65.23
67397;BME280;57728;50.448;18.824;2023-02-03T03:44:37;98270.72;;;0.40;65.25
67397;BME280;57728;50.448;18.824;2023-02-03T03:47:02;98269.16;;;0.29;65.39
67397;BME280;57728;50.448;18.824;2023-02-03T03:49:22;98303.75;;;0.48;65.20
67397;BME280;57728;50.448;18.824;2023-02-03T03:51:35;98324.91;;;0.60;65.25
67397;BME280;57728;50.448;18.824;2023-02-03T03:53:49;98318.69;;;0.59;65.17
67397;BME280;57728;50.448;18.824;2023-02-03T03:55:55;98319.69;;;0.58;65.20
67397;BME280;57728;50.448;18.824;2023-02-03T03:58:11;98312.78;;;0.47;65.04
67397;BME280;57728;50.448;18.824;2023-02-03T04:00:21;98279.31;;;0.25;65.12
67397;BME280;57728;50.448;18.824;2023-02-03T04:02:28;98321.34;;;0.51;65.25
67397;BME280;57728;50.448;18.824;2023-02-03T04:04:35;98316.81;;;0.51;65.26
67397;BME280;57728;50.448;18.824;2023-02-03T04:06:40;98318.97;;;0.48;65.25
67397;BME280;57728;50.448;18.824;2023-02-03T04:08:41;98301.66;;;0.34;65.40
67397;BME280;57728;50.448;18.824;2023-02-03T04:10:44;98318.78;;;0.41;65.57
67397;BME280;57728;50.448;18.824;2023-02-03T04:12:45;98261.88;;;0.13;65.58
67397;BME280;57728;50.448;18.824;2023-02-03T04:14:46;98305.69;;;0.38;65.73
67397;BME280;57728;50.448;18.824;2023-02-03T04:16:49;98296.41;;;0.24;65.94
67397;BME280;57728;50.448;18.824;2023-02-03T04:18:50;98264.97;;;0.00;66.05
67397;BME280;57728;50.448;18.824;2023-02-03T04:20:52;98296.41;;;0.24;66.18
67397;BME280;57728;50.448;18.824;2023-02-03T04:22:54;98284.66;;;0.17;66.18
67397;BME280;57728;50.448;18.824;2023-02-03T04:24:56;98273.91;;;0.09;66.38
67397;BME280;57728;50.448;18.824;2023-02-03T04:26:58;98271.22;;;0.09;66.57
67397;BME280;57728;50.448;18.824;2023-02-03T04:29:01;98274.72;;;0.09;66.38
67397;BME280;57728;50.448;18.824;2023-02-03T04:31:03;98271.22;;;0.09;66.46
67397;BME280;57728;50.448;18.824;2023-02-03T04:33:04;98288.66;;;0.21;66.60
67397;BME280;57728;50.448;18.824;2023-02-03T04:35:07;98282.50;;;0.21;66.58
67397;BME280;57728;50.448;18.824;2023-02-03T04:37:08;98284.84;;;0.24;66.80
67397;BME280;57728;50.448;18.824;2023-02-03T04:39:10;98261.19;;;0.11;66.76
67397;BME280;57728;50.448;18.824;2023-02-03T04:41:12;98280.19;;;0.26;66.82
67397;BME280;57728;50.448;18.824;2023-02-03T04:43:13;98260.84;;;0.14;66.67
67397;BME280;57728;50.448;18.824;2023-02-03T04:45:16;98257.19;;;0.15;66.98
67397;BME280;57728;50.448;18.824;2023-02-03T04:47:19;98241.88;;;-0.01;66.95
67397;BME280;57728;50.448;18.824;2023-02-03T04:49:21;98228.94;;;-0.06;66.88
67397;BME280;57728;50.448;18.824;2023-02-03T04:51:22;98221.25;;;-0.09;67.02
67397;BME280;57728;50.448;18.824;2023-02-03T04:53:24;98241.22;;;0.05;67.15
67397;BME280;57728;50.448;18.824;2023-02-03T04:55:27;98242.09;;;0.06;67.23
67397;BME280;57728;50.448;18.824;2023-02-03T04:57:29;98252.88;;;0.22;67.20
67397;BME280;57728;50.448;18.824;2023-02-03T04:59:31;98164.75;;;-0.32;67.15
67397;BME280;57728;50.448;18.824;2023-02-03T05:01:33;98228.22;;;0.10;67.43
67397;BME280;57728;50.448;18.824;2023-02-03T05:03:35;98233.09;;;0.15;67.57
67397;BME280;57728;50.448;18.824;2023-02-03T05:05:37;98213.97;;;0.10;67.69
67397;BME280;57728;50.448;18.824;2023-02-03T05:07:39;98199.25;;;0.06;67.72
67397;BME280;57728;50.448;18.824;2023-02-03T05:09:40;98174.75;;;-0.08;67.79
67397;BME280;57728;50.448;18.824;2023-02-03T05:11:43;98207.84;;;0.17;67.73
67397;BME280;57728;50.448;18.824;2023-02-03T05:13:44;98208.72;;;0.26;67.75
67397;BME280;57728;50.448;18.824;2023-02-03T05:15:45;98202.38;;;0.27;67.89
67397;BME280;57728;50.448;18.824;2023-02-03T05:17:50;98159.72;;;-0.01;67.80
67397;BME280;57728;50.448;18.824;2023-02-03T05:19:53;98195.31;;;0.26;67.76
67397;BME280;57728;50.448;18.824;2023-02-03T05:21:54;98200.84;;;0.25;67.84
67397;BME280;57728;50.448;18.824;2023-02-03T05:23:56;98179.16;;;0.10;67.82
67397;BME280;57728;50.448;18.824;2023-02-03T05:25:58;98181.72;;;0.20;67.88
67397;BME280;57728;50.448;18.824;2023-02-03T05:28:00;98185.63;;;0.33;67.93
67397;BME280;57728;50.448;18.824;2023-02-03T05:30:03;98167.53;;;0.27;67.84
67397;BME280;57728;50.448;18.824;2023-02-03T05:32:05;98183.00;;;0.42;67.57
67397;BME280;57728;50.448;18.824;2023-02-03T05:34:06;98165.06;;;0.34;67.34
67397;BME280;57728;50.448;18.824;2023-02-03T05:36:08;98112.88;;;-0.05;67.37
67397;BME280;57728;50.448;18.824;2023-02-03T05:38:10;98149.97;;;0.25;67.45
67397;BME280;57728;50.448;18.824;2023-02-03T05:40:12;98176.97;;;0.40;67.61
67397;BME280;57728;50.448;18.824;2023-02-03T05:42:33;98169.59;;;0.42;67.41
67397;BME280;57728;50.448;18.824;2023-02-03T05:44:34;98175.63;;;0.44;67.48
67397;BME280;57728;50.448;18.824;2023-02-03T05:46:35;98116.09;;;0.15;67.30
67397;BME280;57728;50.448;18.824;2023-02-03T05:48:38;98139.44;;;0.31;67.37
67397;BME280;57728;50.448;18.824;2023-02-03T05:50:39;98156.88;;;0.44;67.34
67397;BME280;57728;50.448;18.824;2023-02-03T05:52:43;98139.78;;;0.37;67.44
67397;BME280;57728;50.448;18.824;2023-02-03T05:54:46;98128.72;;;0.31;67.29
67397;BME280;57728;50.448;18.824;2023-02-03T05:56:47;98130.09;;;0.36;67.20
67397;BME280;57728;50.448;18.824;2023-02-03T05:58:49;98151.88;;;0.49;67.04
67397;BME280;57728;50.448;18.824;2023-02-03T06:00:54;98146.50;;;0.49;67.16
67397;BME280;57728;50.448;18.824;2023-02-03T06:03:00;98157.22;;;0.49;67.37
67397;BME280;57728;50.448;18.824;2023-02-03T06:05:02;98111.63;;;0.24;67.41
67397;BME280;57728;50.448;18.824;2023-02-03T06:07:05;98137.28;;;0.43;67.25
67397;BME280;57728;50.448;18.824;2023-02-03T06:09:07;98146.03;;;0.45;67.42
67397;BME280;57728;50.448;18.824;2023-02-03T06:11:11;98119.66;;;0.32;67.36
67397;BME280;57728;50.448;18.824;2023-02-03T06:13:15;98110.97;;;0.30;67.47
67397;BME280;57728;50.448;18.824;2023-02-03T06:15:17;98109.47;;;0.28;67.52
67397;BME280;57728;50.448;18.824;2023-02-03T06:17:18;98110.97;;;0.30;67.29
67397;BME280;57728;50.448;18.824;2023-02-03T06:19:22;98106.44;;;0.31;67.53
67397;BME280;57728;50.448;18.824;2023-02-03T06:21:23;98125.91;;;0.41;67.32
67397;BME280;57728;50.448;18.824;2023-02-03T06:23:25;98139.63;;;0.46;67.21
67397;BME280;57728;50.448;18.824;2023-02-03T06:25:27;98134.09;;;0.48;67.29
67397;BME280;57728;50.448;18.824;2023-02-03T06:27:29;98125.91;;;0.49;67.22
67397;BME280;57728;50.448;18.824;2023-02-03T06:29:30;98091.25;;;0.31;67.16
67397;BME280;57728;50.448;18.824;2023-02-03T06:31:32;98039.28;;;-0.01;67.08
67397;BME280;57728;50.448;18.824;2023-02-03T06:33:34;98031.06;;;0.01;66.99
67397;BME280;57728;50.448;18.824;2023-02-03T06:35:35;98107.84;;;0.51;67.11
67397;BME280;57728;50.448;18.824;2023-02-03T06:37:37;98096.59;;;0.48;67.06
67397;BME280;57728;50.448;18.824;2023-02-03T06:39:39;97990.75;;;-0.14;66.93
67397;BME280;57728;50.448;18.824;2023-02-03T06:41:40;98059.75;;;0.33;66.92
67397;BME280;57728;50.448;18.824;2023-02-03T06:43:42;98081.22;;;0.50;66.65
67397;BME280;57728;50.448;18.824;2023-02-03T06:45:45;98039.34;;;0.24;66.36
67397;BME280;57728;50.448;18.824;2023-02-03T06:47:49;98045.03;;;0.29;66.31
67397;BME280;57728;50.448;18.824;2023-02-03T06:49:51;98055.91;;;0.36;66.17
67397;BME280;57728;50.448;18.824;2023-02-03T06:51:53;98076.84;;;0.49;65.73
67397;BME280;57728;50.448;18.824;2023-02-03T06:53:54;98063.97;;;0.44;65.59
67397;BME280;57728;50.448;18.824;2023-02-03T06:55:57;98053.44;;;0.43;65.80
67397;BME280;57728;50.448;18.824;2023-02-03T06:57:58;98056.94;;;0.51;65.47
67397;BME280;57728;50.448;18.824;2023-02-03T06:59:59;98051.06;;;0.48;65.07
67397;BME280;57728;50.448;18.824;2023-02-03T07:02:02;98064.13;;;0.59;65.07
67397;BME280;57728;50.448;18.824;2023-02-03T07:04:04;98041.38;;;0.47;64.89
67397;BME280;57728;50.448;18.824;2023-02-03T07:06:06;98039.72;;;0.54;64.80
67397;BME280;57728;50.448;18.824;2023-02-03T07:08:08;98047.91;;;0.53;64.63
67397;BME280;57728;50.448;18.824;2023-02-03T07:10:10;98027.28;;;0.45;64.56
67397;BME280;57728;50.448;18.824;2023-02-03T07:12:11;98011.22;;;0.45;64.01
67397;BME280;57728;50.448;18.824;2023-02-03T07:14:13;98049.22;;;0.65;64.30
67397;BME280;57728;50.448;18.824;2023-02-03T07:16:15;98002.88;;;0.40;63.80
67397;BME280;57728;50.448;18.824;2023-02-03T07:18:17;97985.75;;;0.32;64.13
67397;BME280;57728;50.448;18.824;2023-02-03T07:20:20;98013.56;;;0.56;63.73
67397;BME280;57728;50.448;18.824;2023-02-03T07:22:23;98023.63;;;0.62;63.98
67397;BME280;57728;50.448;18.824;2023-02-03T07:24:25;98029.47;;;0.66;64.04
67397;BME280;57728;50.448;18.824;2023-02-03T07:26:27;98028.47;;;0.67;63.93
67397;BME280;57728;50.448;18.824;2023-02-03T07:28:30;98015.09;;;0.67;63.79
67397;BME280;57728;50.448;18.824;2023-02-03T07:30:31;98015.91;;;0.67;63.73
67397;BME280;57728;50.448;18.824;2023-02-03T07:32:34;97957.34;;;0.31;63.69
67397;BME280;57728;50.448;18.824;2023-02-03T07:34:35;98009.72;;;0.67;63.59
67397;BME280;57728;50.448;18.824;2023-02-03T07:36:36;97995.63;;;0.65;63.51
67397;BME280;57728;50.448;18.824;2023-02-03T07:38:39;98013.75;;;0.79;63.18
67397;BME280;57728;50.448;18.824;2023-02-03T07:40:40;97982.75;;;0.52;63.38
67397;BME280;57728;50.448;18.824;2023-02-03T07:42:45;98012.06;;;0.78;63.46
67397;BME280;57728;50.448;18.824;2023-02-03T07:44:48;97944.09;;;0.46;63.23
67397;BME280;57728;50.448;18.824;2023-02-03T07:46:50;97992.63;;;0.76;63.27
67397;BME280;57728;50.448;18.824;2023-02-03T07:48:51;97944.59;;;0.50;63.19
67397;BME280;57728;50.448;18.824;2023-02-03T07:50:54;97921.34;;;0.34;62.97
67397;BME280;57728;50.448;18.824;2023-02-03T07:52:55;97998.47;;;0.88;63.18
67397;BME280;57728;50.448;18.824;2023-02-03T07:54:57;97933.03;;;0.58;63.16
67397;BME280;57728;50.448;18.824;2023-02-03T07:56:59;97880.16;;;0.27;62.83
67397;BME280;57728;50.448;18.824;2023-02-03T07:59:01;97960.16;;;0.79;63.12
67397;BME280;57728;50.448;18.824;2023-02-03T08:01:12;97896.56;;;0.48;62.81
67397;BME280;57728;50.448;18.824;2023-02-03T08:03:16;97978.56;;;0.82;62.81
67397;BME280;57728;50.448;18.824;2023-02-03T08:05:18;97879.50;;;0.41;63.06
67397;BME280;57728;50.448;18.824;2023-02-03T08:07:19;97949.25;;;0.89;63.05
67397;BME280;57728;50.448;18.824;2023-02-03T08:09:21;97918.91;;;0.80;62.98
67397;BME280;57728;50.448;18.824;2023-02-03T08:11:23;97843.50;;;0.36;62.77
67397;BME280;57728;50.448;18.824;2023-02-03T08:13:24;97941.50;;;0.94;62.79
67397;BME280;57728;50.448;18.824;2023-02-03T08:15:27;97966.75;;;1.16;62.83
67397;BME280;57728;50.448;18.824;2023-02-03T08:17:28;97960.22;;;1.19;62.87
67397;BME280;57728;50.448;18.824;2023-02-03T08:19:30;97927.56;;;0.99;62.77
67397;BME280;57728;50.448;18.824;2023-02-03T08:21:32;97921.88;;;1.02;62.77
67397;BME280;57728;50.448;18.824;2023-02-03T08:23:33;97961.66;;;1.30;62.82
67397;BME280;57728;50.448;18.824;2023-02-03T08:25:35;97930.34;;;1.22;62.80
67397;BME280;57728;50.448;18.824;2023-02-03T08:27:38;97947.22;;;1.39;62.92
67397;BME280;57728;50.448;18.824;2023-02-03T08:29:39;97932.94;;;1.38;62.97
67397;BME280;57728;50.448;18.824;2023-02-03T08:31:41;97904.69;;;1.28;62.88
67397;BME280;57728;50.448;18.824;2023-02-03T08:33:43;97913.84;;;1.42;63.07
67397;BME280;57728;50.448;18.824;2023-02-03T08:35:47;97905.25;;;1.46;63.19
67397;BME280;57728;50.448;18.824;2023-02-03T08:37:50;97921.78;;;1.58;63.44
67397;BME280;57728;50.448;18.824;2023-02-03T08:39:52;97906.72;;;1.57;63.50
67397;BME280;57728;50.448;18.824;2023-02-03T08:41:54;97889.34;;;1.45;63.96
67397;BME280;57728;50.448;18.824;2023-02-03T08:43:55;97850.75;;;1.14;64.06
67397;BME280;57728;50.448;18.824;2023-02-03T08:46:05;97891.16;;;1.44;64.71
67397;BME280;57728;50.448;18.824;2023-02-03T08:48:07;97903.75;;;1.44;65.27
67397;BME280;57728;50.448;18.824;2023-02-03T08:50:10;97889.75;;;1.33;65.72
67397;BME280;57728;50.448;18.824;2023-02-03T08:52:13;97884.06;;;1.28;66.62
67397;BME280;57728;50.448;18.824;2023-02-03T08:54:15;97879.03;;;1.25;66.86
67397;BME280;57728;50.448;18.824;2023-02-03T08:56:17;97891.56;;;1.33;67.55
67397;BME280;57728;50.448;18.824;2023-02-03T08:58:19;97873.03;;;1.23;67.96
67397;BME280;57728;50.448;18.824;2023-02-03T09:00:21;97836.78;;;0.96;68.59
67397;BME280;57728;50.448;18.824;2023-02-03T09:02:22;97877.38;;;1.24;68.96
67397;BME280;57728;50.448;18.824;2023-02-03T09:04:24;97849.94;;;1.14;69.29
67397;BME280;57728;50.448;18.824;2023-02-03T09:06:26;97860.28;;;1.25;69.45
67397;BME280;57728;50.448;18.824;2023-02-03T09:08:30;97814.69;;;0.94;69.66
67397;BME280;57728;50.448;18.824;2023-02-03T09:10:32;97861.28;;;1.24;69.88
67397;BME280;57728;50.448;18.824;2023-02-03T09:12:34;97827.53;;;1.07;70.15
67397;BME280;57728;50.448;18.824;2023-02-03T09:14:35;97854.59;;;1.20;70.47
67397;BME280;57728;50.448;18.824;2023-02-03T09:16:38;97843.53;;;1.23;70.61
67397;BME280;57728;50.448;18.824;2023-02-03T09:18:40;97797.88;;;1.00;70.62
67397;BME280;57728;50.448;18.824;2023-02-03T09:20:41;97780.69;;;0.86;70.97
67397;BME280;57728;50.448;18.824;2023-02-03T09:22:44;97802.44;;;0.99;70.99
67397;BME280;57728;50.448;18.824;2023-02-03T09:24:45;97802.03;;;1.11;71.25
67397;BME280;57728;50.448;18.824;2023-02-03T09:26:48;97795.72;;;1.03;71.47
67397;BME280;57728;50.448;18.824;2023-02-03T09:28:52;97768.75;;;0.97;71.99
67397;BME280;57728;50.448;18.824;2023-02-03T09:30:53;97766.72;;;0.99;72.23
67397;BME280;57728;50.448;18.824;2023-02-03T09:32:59;97775.25;;;1.02;72.35
67397;BME280;57728;50.448;18.824;2023-02-03T09:35:01;97780.56;;;1.11;72.47
67397;BME280;57728;50.448;18.824;2023-02-03T09:37:02;97730.81;;;0.85;72.82
67397;BME280;57728;50.448;18.824;2023-02-03T09:39:04;97767.22;;;1.02;73.17
67397;BME280;57728;50.448;18.824;2023-02-03T09:45:37;97722.19;;;0.98;73.40
67397;BME280;57728;50.448;18.824;2023-02-03T09:47:42;97740.19;;;1.12;73.67
67397;BME280;57728;50.448;18.824;2023-02-03T09:50:06;97737.50;;;1.12;73.63
67397;BME280;57728;50.448;18.824;2023-02-03T09:52:24;97686.72;;;0.88;73.74
67397;BME280;57728;50.448;18.824;2023-02-03T09:56:51;97656.91;;;0.91;73.90
67397;BME280;57728;50.448;18.824;2023-02-03T09:58:55;97684.69;;;1.13;74.06
67397;BME280;57728;50.448;18.824;2023-02-03T10:01:00;97659.50;;;0.99;74.41
67397;BME280;57728;50.448;18.824;2023-02-03T10:10:40;97637.34;;;1.05;74.97
67397;BME280;57728;50.448;18.824;2023-02-03T10:18:27;97589.03;;;0.90;75.75
67397;BME280;57728;50.448;18.824;2023-02-03T10:20:46;97611.16;;;0.92;75.80
67397;BME280;57728;50.448;18.824;2023-02-03T10:22:57;97633.75;;;1.13;76.18
67397;BME280;57728;50.448;18.824;2023-02-03T10:27:23;97588.34;;;0.96;76.38
67397;BME280;57728;50.448;18.824;2023-02-03T10:29:34;97603.31;;;1.06;76.64
67397;BME280;57728;50.448;18.824;2023-02-03T10:31:42;97576.31;;;1.07;76.51
67397;BME280;57728;50.448;18.824;2023-02-03T10:33:46;97577.00;;;1.09;76.46
67397;BME280;57728;50.448;18.824;2023-02-03T10:36:06;97590.16;;;1.19;76.79
67397;BME280;57728;50.448;18.824;2023-02-03T10:40:40;97565.25;;;1.25;76.97
67397;BME280;57728;50.448;18.824;2023-02-03T10:42:46;97519.19;;;1.07;77.04
67397;BME280;57728;50.448;18.824;2023-02-03T10:45:11;97547.63;;;1.31;77.10
67397;BME280;57728;50.448;18.824;2023-02-03T10:47:35;97542.72;;;1.34;77.09
67397;BME280;57728;50.448;18.824;2023-02-03T10:49:41;97525.59;;;1.35;77.18
67397;BME280;57728;50.448;18.824;2023-02-03T10:51:51;97554.47;;;1.33;76.90
67397;BME280;57728;50.448;18.824;2023-02-03T10:53:59;97512.28;;;1.27;77.05
67397;BME280;57728;50.448;18.824;2023-02-03T10:56:10;97516.53;;;1.36;77.22
67397;BME280;57728;50.448;18.824;2023-02-03T10:58:25;97506.72;;;1.44;77.25
67397;BME280;57728;50.448;18.824;2023-02-03T11:00:31;97492.56;;;1.50;77.20
67397;BME280;57728;50.448;18.824;2023-02-03T11:02:36;97457.72;;;1.35;76.89
67397;BME280;57728;50.448;18.824;2023-02-03T11:04:37;97449.56;;;1.28;76.96
67397;BME280;57728;50.448;18.824;2023-02-03T11:06:56;97467.50;;;1.43;77.20
67397;BME280;57728;50.448;18.824;2023-02-03T11:09:22;97427.78;;;1.16;77.49
67397;BME280;57728;50.448;18.824;2023-02-03T11:11:39;97452.72;;;1.32;77.63
67397;BME280;57728;50.448;18.824;2023-02-03T11:13:41;97451.06;;;1.46;77.82
67397;BME280;57728;50.448;18.824;2023-02-03T11:17:53;97428.84;;;1.52;77.57
67397;BME280;57728;50.448;18.824;2023-02-03T11:20:11;97437.16;;;1.57;77.78
67397;BME280;57728;50.448;18.824;2023-02-03T11:22:37;97411.63;;;1.46;78.03
67397;BME280;57728;50.448;18.824;2023-02-03T11:24:42;97367.84;;;1.24;77.87
67397;BME280;57728;50.448;18.824;2023-02-03T11:26:53;97402.00;;;1.52;78.23
67397;BME280;57728;50.448;18.824;2023-02-03T11:29:32;97394.44;;;1.56;78.13
67397;BME280;57728;50.448;18.824;2023-02-03T11:31:36;97398.94;;;1.55;78.38
67397;BME280;57728;50.448;18.824;2023-02-03T11:33:38;97370.19;;;1.49;78.29
67397;BME280;57728;50.448;18.824;2023-02-03T11:35:57;97368.72;;;1.46;78.46
67397;BME280;57728;50.448;18.824;2023-02-03T11:38:01;97380.63;;;1.59;78.54
67397;BME280;57728;50.448;18.824;2023-02-03T11:42:23;97359.97;;;1.59;78.69
67397;BME280;57728;50.448;18.824;2023-02-03T11:44:28;97365.34;;;1.59;78.89
67397;BME280;57728;50.448;18.824;2023-02-03T11:46:36;97350.53;;;1.63;78.99
67397;BME280;57728;50.448;18.824;2023-02-03T11:48:45;97343.13;;;1.65;79.04
67397;BME280;57728;50.448;18.824;2023-02-03T11:56:48;97310.78;;;1.74;78.80
67397;BME280;57728;50.448;18.824;2023-02-03T12:04:41;97286.69;;;1.80;79.05
67397;BME280;57728;50.448;18.824;2023-02-03T12:12:47;97281.78;;;1.84;79.03
67397;BME280;57728;50.448;18.824;2023-02-03T12:22:22;97244.78;;;1.79;79.39
67397;BME280;57728;50.448;18.824;2023-02-03T12:24:37;97238.59;;;1.79;79.55